Gunilla — SERW — position and weather

sailwx.info

Track history (hours):
 
Tides and Currents Weather Stations Pressure Air Temp Water Temp Dewpoint Dewpoint Depression Visibility Wind Speed Wind Dir Waves Ship Positions

Gunilla (Sweden)

Ship's website: http://www.gunilla.nu/engelsk/frameset_english.htm

Last reported at 2018-Apr-22 11:56 UTC. Time now 2018-May-23 11:11 UTC.
Position N 27°02' W 079°56'.
Warning: this ship's position is 30 days out of date.

Length 49.4 m; beam 8.4 m; draft 2.7 m.

Type: Sailing vessel. MMSI: 265318000.

Date/timePositionNaut miles runAvg speedWind from/ knotsBaromVisibWave heightAir tempDewpointWater temp
2018-Apr-22 11:56N 27°02' W 079°56'3 6.7
2018-Apr-22 11:30N 26°59' W 079°56'3 6.8
2018-Apr-22 11:00N 26°55' W 079°56'4 6.6
2018-Apr-22 10:28N 26°52' W 079°56'32 7.1
2018-Apr-22 05:59N 26°20' W 079°55'4 7.6
2018-Apr-22 05:30N 26°17' W 079°55'4 7.5
2018-Apr-22 05:00N 26°13' W 079°55'4 7.5
2018-Apr-22 04:30N 26°09' W 079°54'4 7.3
2018-Apr-22 04:00N 26°06' W 079°54'3 6.6
2018-Apr-22 03:30N 26°02' W 079°52'2 3.8
2018-Apr-22 03:00N 26°03' W 079°54'2 4.4
2018-Apr-22 02:30N 26°04' W 079°56'2 3.8
2018-Apr-22 01:59N 26°05' W 079°58'2 3.4
2018-Apr-22 01:29N 26°06' W 080°00'2 3.2
2018-Apr-22 01:00N 26°07' W 080°02'2 3.5
2018-Apr-22 00:30N 26°08' W 080°03'1 1.2
2018-Apr-22 00:00N 26°07' W 080°04'2 4.6
2018-Apr-21 23:30N 26°05' W 080°03'3 5.4
2018-Apr-21 23:00N 26°02' W 080°03'3 6.0
2018-Apr-21 22:30N 25°59' W 080°02'4 7.2
2018-Apr-21 21:59N 25°56' W 080°01'1 2.3
2018-Apr-21 21:30N 25°55' W 080°01'2 3.9
2018-Apr-21 21:00N 25°56' W 080°02'2 3.1
2018-Apr-21 20:30N 25°57' W 080°04'1 2.3
2018-Apr-21 20:00N 25°57' W 080°05'1 2.5
2018-Apr-21 19:30N 25°58' W 080°06'1 1.6
2018-Apr-21 19:00N 25°59' W 080°06'2 4.3
2018-Apr-21 18:30N 25°57' W 080°05'2 4.6
2018-Apr-21 18:00N 25°55' W 080°05'2 5.0
2018-Apr-21 17:30N 25°52' W 080°05'2 4.1
2018-Apr-21 17:00N 25°50' W 080°05'1 2.3
2018-Apr-21 16:30N 25°49' W 080°04'1 1.5
2018-Apr-21 16:00N 25°48' W 080°04'1 1.5
2018-Apr-21 15:30N 25°48' W 080°04'3 5.5
2018-Apr-21 15:00N 25°46' W 080°06'3 5.6
2018-Apr-21 14:30N 25°46' W 080°09'2 3.2
2018-Apr-21 13:59N 25°47' W 080°11'0 0.0
2018-Apr-21 13:29N 25°47' W 080°11'0 0.0
2018-Apr-21 12:59N 25°47' W 080°11'0 0.0
2018-Apr-21 12:26N 25°47' W 080°11'0 0.0
2018-Apr-21 11:59N 25°47' W 080°11'0 0.0
2018-Apr-21 11:26N 25°47' W 080°11'0 0.0
2018-Apr-21 10:59N 25°47' W 080°11'0 0.1
2018-Apr-21 10:24N 25°47' W 080°11'0 0.8
2018-Apr-21 10:00N 25°47' W 080°11'0 0.0
2018-Apr-21 09:30N 25°47' W 080°11'0 0.0
2018-Apr-21 09:00N 25°47' W 080°11'0 0.0
2018-Apr-21 08:30N 25°47' W 080°11'0 0.0
2018-Apr-21 08:00N 25°47' W 080°11'0 0.0
2018-Apr-21 07:30N 25°47' W 080°11'0 0.0
2018-Apr-21 07:00N 25°47' W 080°11'0 0.0
2018-Apr-21 06:30N 25°47' W 080°11'0 0.0
2018-Apr-21 06:00N 25°47' W 080°11'0 0.0
2018-Apr-21 05:30N 25°47' W 080°11'0 0.0
2018-Apr-21 04:57N 25°47' W 080°11'0 0.0
2018-Apr-21 04:30N 25°47' W 080°11'0 0.0
2018-Apr-21 03:57N 25°47' W 080°11'0 0.0
2018-Apr-21 03:24N 25°47' W 080°11'0 0.0
2018-Apr-21 03:00N 25°47' W 080°11'0 0.0
2018-Apr-21 02:27N 25°47' W 080°11'0 0.0
2018-Apr-21 02:00N 25°47' W 080°11'0 0.0
2018-Apr-21 01:27N 25°47' W 080°11'0 0.0
2018-Apr-21 00:54N 25°47' W 080°11'0 0.0
2018-Apr-21 00:30N 25°47' W 080°11'0 0.0
2018-Apr-21 00:00N 25°47' W 080°11'0 0.0
2018-Apr-20 23:30N 25°47' W 080°11'0 0.0
2018-Apr-20 23:00N 25°47' W 080°11'0 0.0
2018-Apr-20 22:30N 25°47' W 080°11'0 0.0
2018-Apr-20 22:00N 25°47' W 080°11'0 0.0
2018-Apr-20 21:30N 25°47' W 080°11'0 0.0
2018-Apr-20 21:00N 25°47' W 080°11'0 0.0
2018-Apr-20 20:30N 25°47' W 080°11'0 0.0
2018-Apr-20 19:57N 25°47' W 080°11'0 0.0
2018-Apr-20 19:30N 25°47' W 080°11'0 0.0
2018-Apr-20 19:00N 25°47' W 080°11'0 0.0
2018-Apr-20 18:24N 25°47' W 080°11'0 0.0
2018-Apr-20 18:00N 25°47' W 080°11'0 0.0
2018-Apr-20 17:24N 25°47' W 080°11'0 0.0
2018-Apr-20 17:00N 25°47' W 080°11'0 0.0
2018-Apr-20 16:30N 25°47' W 080°11'0 0.0
2018-Apr-20 16:00N 25°47' W 080°11'0 0.0
2018-Apr-20 15:30N 25°47' W 080°11'0 0.0
2018-Apr-20 15:00N 25°47' W 080°11'0 0.0
2018-Apr-20 14:30N 25°47' W 080°11'0 0.0
2018-Apr-20 14:00N 25°47' W 080°11'0 0.0
2018-Apr-20 13:30N 25°47' W 080°11'0 0.0
2018-Apr-20 12:57N 25°47' W 080°11'0 0.0
2018-Apr-20 12:18N 25°47' W 080°11'0 0.0
2018-Apr-20 12:00N 25°47' W 080°11'0 0.0
2018-Apr-20 11:30N 25°47' W 080°11'0 0.0
2018-Apr-20 11:00N 25°47' W 080°11'0 0.0
2018-Apr-20 10:27N 25°47' W 080°11'0 0.0
2018-Apr-20 10:00N 25°47' W 080°11'0 0.0
2018-Apr-20 09:30N 25°47' W 080°11'0 0.0
2018-Apr-20 09:00N 25°47' W 080°11'0 0.0
2018-Apr-20 08:30N 25°47' W 080°11'0 0.0
2018-Apr-20 07:57N 25°47' W 080°11'0 0.0
2018-Apr-20 07:27N 25°47' W 080°11'0 0.0
2018-Apr-20 07:00N 25°47' W 080°11'0 0.0
2018-Apr-20 06:30N 25°47' W 080°11'0 0.0
2018-Apr-20 06:00N 25°47' W 080°11'0 0.0
2018-Apr-20 05:30N 25°47' W 080°11'0 0.0
2018-Apr-20 05:00N 25°47' W 080°11'0 0.0
2018-Apr-20 04:30N 25°47' W 080°11'0 0.0
2018-Apr-20 04:00N 25°47' W 080°11'0 0.0
2018-Apr-20 03:24N 25°47' W 080°11'0 0.0
2018-Apr-20 03:00N 25°47' W 080°11'0 0.0
2018-Apr-20 02:30N 25°47' W 080°11'0 0.0
2018-Apr-20 02:00N 25°47' W 080°11'0 0.0
2018-Apr-20 01:30N 25°47' W 080°11'0 0.0
2018-Apr-20 01:00N 25°47' W 080°11'0 0.0
2018-Apr-20 00:30N 25°47' W 080°11'0 0.0
2018-Apr-20 00:00N 25°47' W 080°11'0 0.0
2018-Apr-19 23:27N 25°47' W 080°11'0 0.0
2018-Apr-19 23:00N 25°47' W 080°11'0 0.0
2018-Apr-19 22:30N 25°47' W 080°11'0 0.0
2018-Apr-19 21:57N 25°47' W 080°11'0 0.0
2018-Apr-19 21:30N 25°47' W 080°11'0 0.0
2018-Apr-19 21:00N 25°47' W 080°11'0 0.0
2018-Apr-19 20:30N 25°47' W 080°11'0 0.0
2018-Apr-19 20:00N 25°47' W 080°11'0 0.0
2018-Apr-19 19:30N 25°47' W 080°11'0 0.0
2018-Apr-19 19:00N 25°47' W 080°11'0 0.0
2018-Apr-19 18:27N 25°47' W 080°11'0 0.0
2018-Apr-19 17:54N 25°47' W 080°11'0 0.0
2018-Apr-19 17:30N 25°47' W 080°11'0 0.0
2018-Apr-19 16:57N 25°47' W 080°11'0 0.0
2018-Apr-19 16:30N 25°47' W 080°11'0 0.0
2018-Apr-19 16:00N 25°47' W 080°11'0 0.0
2018-Apr-19 15:24N 25°47' W 080°11'0 0.0
2018-Apr-19 14:57N 25°47' W 080°11'0 0.0
2018-Apr-19 14:30N 25°47' W 080°11'0 0.0
2018-Apr-19 14:00N 25°47' W 080°11'0 0.0
2018-Apr-19 13:29N 25°47' W 080°11'0 0.0
2018-Apr-19 13:00N 25°47' W 080°11'0 0.0
2018-Apr-19 12:30N 25°47' W 080°11'0 0.0
2018-Apr-19 11:57N 25°47' W 080°11'0 0.0
2018-Apr-19 11:30N 25°47' W 080°11'0 0.0
2018-Apr-19 11:00N 25°47' W 080°11'0 0.0
2018-Apr-19 10:30N 25°47' W 080°11'0 0.0
2018-Apr-19 09:59N 25°47' W 080°11'0 0.0
2018-Apr-19 09:30N 25°47' W 080°11'0 0.0
2018-Apr-19 09:00N 25°47' W 080°11'0 0.0
2018-Apr-19 08:29N 25°47' W 080°11'0 0.0
2018-Apr-19 08:00N 25°47' W 080°11'0 0.0
2018-Apr-19 07:29N 25°47' W 080°11'0 0.0
2018-Apr-19 06:57N 25°47' W 080°11'0 0.0
2018-Apr-19 06:24N 25°47' W 080°11'0 0.0
2018-Apr-19 05:59N 25°47' W 080°11'0 0.0
2018-Apr-19 05:27N 25°47' W 080°11'0 0.0
2018-Apr-19 04:57N 25°47' W 080°11'0 0.0
2018-Apr-19 04:26N 25°47' W 080°11'0 0.0
2018-Apr-19 03:59N 25°47' W 080°11'0 0.0
2018-Apr-19 03:29N 25°47' W 080°11'0 0.0
2018-Apr-19 02:59N 25°47' W 080°11'0 0.0
2018-Apr-19 02:29N 25°47' W 080°11'0 0.0
2018-Apr-19 02:00N 25°47' W 080°11'0 0.0
2018-Apr-19 01:27N 25°47' W 080°11'0 0.0
2018-Apr-19 01:00N 25°47' W 080°11'0 0.0
2018-Apr-19 00:30N 25°47' W 080°11'0 0.0
2018-Apr-19 00:00N 25°47' W 080°11'0 0.0
2018-Apr-18 23:30N 25°47' W 080°11'0 0.0
2018-Apr-18 23:00N 25°47' W 080°11'0 0.0
2018-Apr-18 22:30N 25°47' W 080°11'0 0.0
2018-Apr-18 22:00N 25°47' W 080°11'0 0.0
2018-Apr-18 21:30N 25°47' W 080°11'0 0.0
2018-Apr-18 21:00N 25°47' W 080°11'0 0.0
2018-Apr-18 20:27N 25°47' W 080°11'0 0.0
2018-Apr-18 20:00N 25°47' W 080°11'0 0.0
2018-Apr-18 19:30N 25°47' W 080°11'0 0.0
2018-Apr-18 19:00N 25°47' W 080°11'0 0.0
2018-Apr-18 18:30N 25°47' W 080°11'0 0.0
2018-Apr-18 17:57N 25°47' W 080°11'0 0.0
2018-Apr-18 17:30N 25°47' W 080°11'0 0.0
2018-Apr-18 17:00N 25°47' W 080°11'0 0.0
2018-Apr-18 16:30N 25°47' W 080°11'0 0.0
2018-Apr-18 16:00N 25°47' W 080°11'0 0.0
2018-Apr-18 15:30N 25°47' W 080°11'0 0.0
2018-Apr-18 15:00N 25°47' W 080°11'0 0.0
2018-Apr-18 14:30N 25°47' W 080°11'0 0.0
2018-Apr-18 14:00N 25°47' W 080°11'0 0.0
2018-Apr-18 13:30N 25°47' W 080°11'0 0.0
2018-Apr-18 13:00N 25°47' W 080°11'0 0.0
2018-Apr-18 12:30N 25°47' W 080°11'0 0.0
2018-Apr-18 12:00N 25°47' W 080°11'0 0.0
2018-Apr-18 11:27N 25°47' W 080°11'0 0.0
2018-Apr-18 11:00N 25°47' W 080°11'0 0.0
2018-Apr-18 10:30N 25°47' W 080°11'0 0.0
2018-Apr-18 09:57N 25°47' W 080°11'0 0.0
2018-Apr-18 09:30N 25°47' W 080°11'0 0.0
2018-Apr-18 09:00N 25°47' W 080°11'0 0.0
2018-Apr-18 08:30N 25°47' W 080°11'0 0.0
2018-Apr-18 08:00N 25°47' W 080°11'0 0.0
2018-Apr-18 07:30N 25°47' W 080°11'0 0.0
2018-Apr-18 07:00N 25°47' W 080°11'0 0.0
2018-Apr-18 06:30N 25°47' W 080°11'0 0.0
2018-Apr-18 05:57N 25°47' W 080°11'0 0.0
2018-Apr-18 05:30N 25°47' W 080°11'0 0.0
2018-Apr-18 04:57N 25°47' W 080°11'0 0.0
2018-Apr-18 04:30N 25°47' W 080°11'0 0.0
2018-Apr-18 04:00N 25°47' W 080°11'0 0.0
2018-Apr-18 03:30N 25°47' W 080°11'0 0.0
2018-Apr-18 03:00N 25°47' W 080°11'0 0.0
2018-Apr-18 02:30N 25°47' W 080°11'0 0.0
2018-Apr-18 01:58N 25°47' W 080°11'0 0.0
2018-Apr-18 01:25N 25°47' W 080°11'0 0.0
2018-Apr-18 00:58N 25°47' W 080°11'0 0.0
2018-Apr-18 00:28N 25°47' W 080°11'0 0.0
2018-Apr-17 23:58N 25°47' W 080°11'0 0.0
2018-Apr-17 23:28N 25°47' W 080°11'0 0.0
2018-Apr-17 22:58N 25°47' W 080°11'0 0.0
2018-Apr-17 22:28N 25°47' W 080°11'0 0.0
2018-Apr-17 21:52N 25°47' W 080°11'0 0.0
2018-Apr-17 21:28N 25°47' W 080°11'0 0.0
2018-Apr-17 20:55N 25°47' W 080°11'0 0.0
2018-Apr-17 20:25N 25°47' W 080°11'0 0.0
2018-Apr-17 19:58N 25°47' W 080°11'0 0.0
2018-Apr-17 19:28N 25°47' W 080°11'0 0.0
2018-Apr-17 18:55N 25°47' W 080°11'0 0.0
2018-Apr-17 18:28N 25°47' W 080°11'0 0.0
2018-Apr-17 17:58N 25°47' W 080°11'0 0.0
2018-Apr-17 17:28N 25°47' W 080°11'0 0.0
2018-Apr-17 16:58N 25°47' W 080°11'0 0.0
2018-Apr-17 16:28N 25°47' W 080°11'0 0.0
2018-Apr-17 15:58N 25°47' W 080°11'0 0.0
2018-Apr-17 15:25N 25°47' W 080°11'0 0.0
2018-Apr-17 14:52N 25°47' W 080°11'0 0.0
2018-Apr-17 14:28N 25°47' W 080°11'0 0.0
2018-Apr-17 13:58N 25°47' W 080°11'0 0.0
2018-Apr-17 13:28N 25°47' W 080°11'0 0.0
2018-Apr-17 12:58N 25°47' W 080°11'0 0.0
2018-Apr-17 12:28N 25°47' W 080°11'0 0.0
2018-Apr-17 11:58N 25°47' W 080°11'0 0.0
2018-Apr-17 11:25N 25°47' W 080°11'0 0.0
2018-Apr-17 10:58N 25°47' W 080°11'0 0.0
2018-Apr-17 10:28N 25°47' W 080°11'0 0.0
2018-Apr-17 09:58N 25°47' W 080°11'0 0.0
2018-Apr-17 09:28N 25°47' W 080°11'0 0.0
2018-Apr-17 08:58N 25°47' W 080°11'0 0.0
2018-Apr-17 08:22N 25°47' W 080°11'0 0.0
2018-Apr-17 07:58N 25°47' W 080°11'0 0.0
2018-Apr-17 07:28N 25°47' W 080°11'0 0.0
2018-Apr-17 06:58N 25°47' W 080°11'0 0.0
2018-Apr-17 06:28N 25°47' W 080°11'0 0.0
2018-Apr-17 05:58N 25°47' W 080°11'0 0.0
2018-Apr-17 05:28N 25°47' W 080°11'0 0.0
2018-Apr-17 04:55N 25°47' W 080°11'0 0.0
2018-Apr-17 04:28N 25°47' W 080°11'0 0.0
2018-Apr-17 03:58N 25°47' W 080°11'0 0.0
2018-Apr-17 03:28N 25°47' W 080°11'0 0.0
2018-Apr-17 02:58N 25°47' W 080°11'0 0.0
2018-Apr-17 02:29N 25°47' W 080°11'0 0.0
2018-Apr-17 01:59N 25°47' W 080°11'0 0.0
2018-Apr-17 01:29N 25°47' W 080°11'0 0.0
2018-Apr-17 00:59N 25°47' W 080°11'0 0.0
2018-Apr-17 00:29N 25°47' W 080°11'0 0.0
2018-Apr-16 23:59N 25°47' W 080°11'0 0.0
2018-Apr-16 23:26N 25°47' W 080°11'0 0.0
2018-Apr-16 22:59N 25°47' W 080°11'0 0.0
2018-Apr-16 22:29N 25°47' W 080°11'0 0.0
2018-Apr-16 21:59N 25°47' W 080°11'0 0.0
2018-Apr-16 21:29N 25°47' W 080°11'0 0.0
2018-Apr-16 20:59N 25°47' W 080°11'0 0.0
2018-Apr-16 20:26N 25°47' W 080°11'0 0.0
2018-Apr-16 19:59N 25°47' W 080°11'0 0.0
2018-Apr-16 19:29N 25°47' W 080°11'0 0.0
2018-Apr-16 18:56N 25°47' W 080°11'0 0.0
2018-Apr-16 18:26N 25°47' W 080°11'0 0.0
2018-Apr-16 17:59N 25°47' W 080°11'0 0.0
2018-Apr-16 17:26N 25°47' W 080°11'0 0.0
2018-Apr-16 16:56N 25°47' W 080°11'0 0.0
2018-Apr-16 16:26N 25°47' W 080°11'0 0.0
2018-Apr-16 15:56N 25°47' W 080°11'0 0.0
2018-Apr-16 15:29N 25°47' W 080°11'0 0.0
2018-Apr-16 14:59N 25°47' W 080°11'0 0.0
2018-Apr-16 14:29N 25°47' W 080°11'0 0.0
2018-Apr-16 13:59N 25°47' W 080°11'0 0.0
2018-Apr-16 13:26N 25°47' W 080°11'0 0.0
2018-Apr-16 12:56N 25°47' W 080°11'0 0.0
2018-Apr-16 12:29N 25°47' W 080°11'0 0.0
2018-Apr-16 11:56N 25°47' W 080°11'0 0.0
2018-Apr-16 11:29N 25°47' W 080°11'0 0.0
2018-Apr-16 10:59N 25°47' W 080°11'0 0.0
2018-Apr-16 10:29N 25°47' W 080°11'0 0.0
2018-Apr-16 09:59N 25°47' W 080°11'0 0.0
2018-Apr-16 09:29N 25°47' W 080°11'0 0.0
2018-Apr-16 08:59N 25°47' W 080°11'0 0.0
2018-Apr-16 08:26N 25°47' W 080°11'0 0.0
2018-Apr-16 07:59N 25°47' W 080°11'0 0.0
2018-Apr-16 07:29N 25°47' W 080°11'0 0.0
2018-Apr-16 06:59N 25°47' W 080°11'0 0.0
2018-Apr-16 06:29N 25°47' W 080°11'0 0.0
2018-Apr-16 05:59N 25°47' W 080°11'0 0.0
2018-Apr-16 05:29N 25°47' W 080°11'0 0.0
2018-Apr-16 04:56N 25°47' W 080°11'0 0.0
2018-Apr-16 04:29N 25°47' W 080°11'0 0.0
2018-Apr-16 03:59N 25°47' W 080°11'0 0.0
2018-Apr-16 03:29N 25°47' W 080°11'0 0.0
2018-Apr-16 02:53N 25°47' W 080°11'0 0.0
2018-Apr-16 02:30N 25°47' W 080°11'0 0.0
2018-Apr-16 01:58N 25°47' W 080°11'0 0.0
2018-Apr-16 01:22N 25°47' W 080°11'0 0.0
2018-Apr-16 00:58N 25°47' W 080°11'0 0.0
2018-Apr-16 00:28N 25°47' W 080°11'0 0.0
2018-Apr-15 23:58N 25°47' W 080°11'0 0.0
2018-Apr-15 23:28N 25°47' W 080°11'0 0.0
2018-Apr-15 22:55N 25°47' W 080°11'0 0.0
2018-Apr-15 22:28N 25°47' W 080°11'0 0.0
2018-Apr-15 21:58N 25°47' W 080°11'0 0.0
2018-Apr-15 21:25N 25°47' W 080°11'0 0.0
2018-Apr-15 20:58N 25°47' W 080°11'0 0.0
2018-Apr-15 20:28N 25°47' W 080°11'0 0.0
2018-Apr-15 19:58N 25°47' W 080°11'0 0.0
2018-Apr-15 19:28N 25°47' W 080°11'0 0.0
2018-Apr-15 18:58N 25°47' W 080°11'0 0.0
2018-Apr-15 18:28N 25°47' W 080°11'0 0.0
2018-Apr-15 17:58N 25°47' W 080°11'0 0.0
2018-Apr-15 17:28N 25°47' W 080°11'0 0.0
2018-Apr-15 16:58N 25°47' W 080°11'0 0.0
2018-Apr-15 16:28N 25°47' W 080°11'0 0.0
2018-Apr-15 15:58N 25°47' W 080°11'0 0.0
2018-Apr-15 15:22N 25°47' W 080°11'0 0.0
2018-Apr-15 14:58N 25°47' W 080°11'0 0.0
2018-Apr-15 14:28N 25°47' W 080°11'0 0.0
2018-Apr-15 13:58N 25°47' W 080°11'0 0.0
2018-Apr-15 13:28N 25°47' W 080°11'0 0.0
2018-Apr-15 12:55N 25°47' W 080°11'0 0.0
2018-Apr-15 12:28N 25°47' W 080°11'0 0.0
2018-Apr-15 11:52N 25°47' W 080°11'0 0.0
2018-Apr-15 11:28N 25°47' W 080°11'0 0.0
2018-Apr-15 10:55N 25°47' W 080°11'0 0.0
2018-Apr-15 10:28N 25°47' W 080°11'0 0.0
2018-Apr-15 09:58N 25°47' W 080°11'0 0.0
2018-Apr-15 09:28N 25°47' W 080°11'0 0.0
2018-Apr-15 08:55N 25°47' W 080°11'0 0.0
2018-Apr-15 08:28N 25°47' W 080°11'0 0.0
2018-Apr-15 07:58N 25°47' W 080°11'0 0.0
2018-Apr-15 07:28N 25°47' W 080°11'0 0.0
2018-Apr-15 06:58N 25°47' W 080°11'0 0.0
2018-Apr-15 06:28N 25°47' W 080°11'0 0.0
2018-Apr-15 05:58N 25°47' W 080°11'0 0.0
2018-Apr-15 05:28N 25°47' W 080°11'0 0.0
2018-Apr-15 04:58N 25°47' W 080°11'0 0.0
2018-Apr-15 04:28N 25°47' W 080°11'0 0.0
2018-Apr-15 03:58N 25°47' W 080°11'0 0.0
2018-Apr-15 03:16N 25°47' W 080°11'0 0.0
2018-Apr-15 02:55N 25°47' W 080°11'0 0.0
2018-Apr-15 02:30N 25°47' W 080°11'0 0.0
2018-Apr-15 01:58N 25°47' W 080°11'0 0.0
2018-Apr-15 01:28N 25°47' W 080°11'0 0.0
2018-Apr-15 00:58N 25°47' W 080°11'0 0.0
2018-Apr-15 00:28N 25°47' W 080°11'0 0.0
2018-Apr-14 23:58N 25°47' W 080°11'0 0.0
2018-Apr-14 23:28N 25°47' W 080°11'0 0.0
2018-Apr-14 22:58N 25°47' W 080°11'0 0.0
2018-Apr-14 22:28N 25°47' W 080°11'0 0.0
2018-Apr-14 21:58N 25°47' W 080°11'0 0.0
2018-Apr-14 21:28N 25°47' W 080°11'0 0.0
2018-Apr-14 20:55N 25°47' W 080°11'0 0.0
2018-Apr-14 20:28N 25°47' W 080°11'0 0.0
2018-Apr-14 19:58N 25°47' W 080°11'0 0.0
2018-Apr-14 19:28N 25°47' W 080°11'0 0.0
2018-Apr-14 18:58N 25°47' W 080°11'0 0.0
2018-Apr-14 18:22N 25°47' W 080°11'0 0.0
2018-Apr-14 17:58N 25°47' W 080°11'0 0.0
2018-Apr-14 17:28N 25°47' W 080°11'0 0.0
2018-Apr-14 16:58N 25°47' W 080°11'0 0.0
2018-Apr-14 16:28N 25°47' W 080°11'0 0.0
2018-Apr-14 15:55N 25°47' W 080°11'0 0.0
2018-Apr-14 15:28N 25°47' W 080°11'0 0.0
2018-Apr-14 14:55N 25°47' W 080°11'0 0.0
2018-Apr-14 14:28N 25°47' W 080°11'0 0.0
2018-Apr-14 13:58N 25°47' W 080°11'0 0.0
2018-Apr-14 13:28N 25°47' W 080°11'0 0.0
2018-Apr-14 12:58N 25°47' W 080°11'0 0.0
2018-Apr-14 12:28N 25°47' W 080°11'0 0.0
2018-Apr-14 11:58N 25°47' W 080°11'0 0.0
2018-Apr-14 11:28N 25°47' W 080°11'0 0.0
2018-Apr-14 10:55N 25°47' W 080°11'0 0.0
2018-Apr-14 10:25N 25°47' W 080°11'0 0.0
2018-Apr-14 09:58N 25°47' W 080°11'0 0.0
2018-Apr-14 09:28N 25°47' W 080°11'0 0.0
2018-Apr-14 08:58N 25°47' W 080°11'0 0.0
2018-Apr-14 08:28N 25°47' W 080°11'0 0.0
2018-Apr-14 07:58N 25°47' W 080°11'0 0.0
2018-Apr-14 07:28N 25°47' W 080°11'0 0.0
2018-Apr-14 06:55N 25°47' W 080°11'0 0.0
2018-Apr-14 06:22N 25°47' W 080°11'0 0.0
2018-Apr-14 05:58N 25°47' W 080°11'0 0.0
2018-Apr-14 05:25N 25°47' W 080°11'0 0.0
2018-Apr-14 04:58N 25°47' W 080°11'0 0.0
2018-Apr-14 04:22N 25°47' W 080°11'0 0.0
2018-Apr-14 03:58N 25°47' W 080°11'0 0.0
2018-Apr-14 03:28N 25°47' W 080°11'0 0.0
2018-Apr-14 02:49N 25°47' W 080°11'0 0.0
2018-Apr-14 02:30N 25°47' W 080°11'0 0.0
2018-Apr-14 02:00N 25°47' W 080°11'0 0.0
2018-Apr-14 01:29N 25°47' W 080°11'0 0.0
2018-Apr-14 00:59N 25°47' W 080°11'0 0.0
2018-Apr-14 00:27N 25°47' W 080°11'0 0.0
2018-Apr-13 23:59N 25°47' W 080°11'0 0.0
2018-Apr-13 23:24N 25°47' W 080°11'0 0.0
2018-Apr-13 22:57N 25°47' W 080°11'0 0.0
2018-Apr-13 22:29N 25°47' W 080°11'0 0.0
2018-Apr-13 21:59N 25°47' W 080°11'0 0.0
2018-Apr-13 21:30N 25°47' W 080°11'0 0.0
2018-Apr-13 20:59N 25°47' W 080°11'0 0.0
2018-Apr-13 20:29N 25°47' W 080°11'0 0.0
2018-Apr-13 19:56N 25°47' W 080°11'0 0.0
2018-Apr-13 19:29N 25°47' W 080°11'0 0.0
2018-Apr-13 18:59N 25°47' W 080°11'0 0.0
2018-Apr-13 18:29N 25°47' W 080°11'0 0.0
2018-Apr-13 17:59N 25°47' W 080°11'0 0.0
2018-Apr-13 17:29N 25°47' W 080°11'0 0.0
2018-Apr-13 16:59N 25°47' W 080°11'0 0.0
2018-Apr-13 16:29N 25°47' W 080°11'0 0.0
2018-Apr-13 15:59N 25°47' W 080°11'0 0.0
2018-Apr-13 15:29N 25°47' W 080°11'0 0.0
2018-Apr-13 14:59N 25°47' W 080°11'0 0.0
2018-Apr-13 14:29N 25°47' W 080°11'0 0.0
2018-Apr-13 13:59N 25°47' W 080°11'0 0.0
2018-Apr-13 13:30N 25°47' W 080°11'0 0.1
2018-Apr-13 13:00N 25°47' W 080°11'3 5.1
2018-Apr-13 12:30N 25°46' W 080°08'3 6.8
2018-Apr-13 12:01N 25°46' W 080°05'3 6.0
2018-Apr-13 11:30N 25°44' W 080°02'1 2.5
2018-Apr-13 11:00N 25°43' W 080°01'1 2.7
2018-Apr-13 10:30N 25°42' W 080°01'1 2.9
2018-Apr-13 10:00N 25°40' W 079°60'2 3.1
2018-Apr-13 09:30N 25°39' W 079°59'1 2.0
2018-Apr-13 09:00N 25°38' W 079°58'0 0.6
2018-Apr-13 08:30N 25°38' W 079°58'0 0.8
2018-Apr-13 08:00N 25°38' W 079°58'0 0.8
2018-Apr-13 07:31N 25°38' W 079°57'0 0.9
2018-Apr-13 06:58N 25°38' W 079°57'0 0.8
2018-Apr-13 06:31N 25°37' W 079°56'1 1.1
2018-Apr-13 06:00N 25°37' W 079°56'1 1.1
2018-Apr-13 05:31N 25°37' W 079°55'1 1.3
2018-Apr-13 04:59N 25°37' W 079°55'2 3.4
2018-Apr-13 04:27N 25°36' W 079°54'1 2.9
2018-Apr-13 04:01N 25°36' W 079°52'1 1.1
2018-Apr-13 03:23N 25°36' W 079°51'1 2.0
2018-Apr-13 02:55N 25°35' W 079°50'2 4.9
2018-Apr-13 02:30N 25°34' W 079°49'  
Track history (hours):
 
Tides and Currents Weather Stations Pressure Air Temp Water Temp Dewpoint Dewpoint Depression Visibility Wind Speed Wind Dir Waves Ship Positions

Gunilla (Sweden)

Ship's website: http://www.gunilla.nu/engelsk/frameset_english.htm

Last reported at 2018-Apr-22 11:56 UTC. Time now 2018-May-23 11:11 UTC.
Position N 27°02' W 079°56'.
Warning: this ship's position is 30 days out of date.

Length 49.4 m; beam 8.4 m; draft 2.7 m.

Type: Sailing vessel. MMSI: 265318000.

Date/timePositionNaut miles runAvg speedWind from/ knotsBaromVisibWave heightAir tempDewpointWater temp
2018-Apr-22 11:56N 27°02' W 079°56'3 6.7
2018-Apr-22 11:30N 26°59' W 079°56'3 6.8
2018-Apr-22 11:00N 26°55' W 079°56'4 6.6
2018-Apr-22 10:28N 26°52' W 079°56'32 7.1
2018-Apr-22 05:59N 26°20' W 079°55'4 7.6
2018-Apr-22 05:30N 26°17' W 079°55'4 7.5
2018-Apr-22 05:00N 26°13' W 079°55'4 7.5
2018-Apr-22 04:30N 26°09' W 079°54'4 7.3
2018-Apr-22 04:00N 26°06' W 079°54'3 6.6
2018-Apr-22 03:30N 26°02' W 079°52'2 3.8
2018-Apr-22 03:00N 26°03' W 079°54'2 4.4
2018-Apr-22 02:30N 26°04' W 079°56'2 3.8
2018-Apr-22 01:59N 26°05' W 079°58'2 3.4
2018-Apr-22 01:29N 26°06' W 080°00'2 3.2
2018-Apr-22 01:00N 26°07' W 080°02'2 3.5
2018-Apr-22 00:30N 26°08' W 080°03'1 1.2
2018-Apr-22 00:00N 26°07' W 080°04'2 4.6
2018-Apr-21 23:30N 26°05' W 080°03'3 5.4
2018-Apr-21 23:00N 26°02' W 080°03'3 6.0
2018-Apr-21 22:30N 25°59' W 080°02'4 7.2
2018-Apr-21 21:59N 25°56' W 080°01'1 2.3
2018-Apr-21 21:30N 25°55' W 080°01'2 3.9
2018-Apr-21 21:00N 25°56' W 080°02'2 3.1
2018-Apr-21 20:30N 25°57' W 080°04'1 2.3
2018-Apr-21 20:00N 25°57' W 080°05'1 2.5
2018-Apr-21 19:30N 25°58' W 080°06'1 1.6
2018-Apr-21 19:00N 25°59' W 080°06'2 4.3
2018-Apr-21 18:30N 25°57' W 080°05'2 4.6
2018-Apr-21 18:00N 25°55' W 080°05'2 5.0
2018-Apr-21 17:30N 25°52' W 080°05'2 4.1
2018-Apr-21 17:00N 25°50' W 080°05'1 2.3
2018-Apr-21 16:30N 25°49' W 080°04'1 1.5
2018-Apr-21 16:00N 25°48' W 080°04'1 1.5
2018-Apr-21 15:30N 25°48' W 080°04'3 5.5
2018-Apr-21 15:00N 25°46' W 080°06'3 5.6
2018-Apr-21 14:30N 25°46' W 080°09'2 3.2
2018-Apr-21 13:59N 25°47' W 080°11'0 0.0
2018-Apr-21 13:29N 25°47' W 080°11'0 0.0
2018-Apr-21 12:59N 25°47' W 080°11'0 0.0
2018-Apr-21 12:26N 25°47' W 080°11'0 0.0
2018-Apr-21 11:59N 25°47' W 080°11'0 0.0
2018-Apr-21 11:26N 25°47' W 080°11'0 0.0
2018-Apr-21 10:59N 25°47' W 080°11'0 0.1
2018-Apr-21 10:24N 25°47' W 080°11'0 0.8
2018-Apr-21 10:00N 25°47' W 080°11'0 0.0
2018-Apr-21 09:30N 25°47' W 080°11'0 0.0
2018-Apr-21 09:00N 25°47' W 080°11'0 0.0
2018-Apr-21 08:30N 25°47' W 080°11'0 0.0
2018-Apr-21 08:00N 25°47' W 080°11'0 0.0
2018-Apr-21 07:30N 25°47' W 080°11'0 0.0
2018-Apr-21 07:00N 25°47' W 080°11'0 0.0
2018-Apr-21 06:30N 25°47' W 080°11'0 0.0
2018-Apr-21 06:00N 25°47' W 080°11'0 0.0
2018-Apr-21 05:30N 25°47' W 080°11'0 0.0
2018-Apr-21 04:57N 25°47' W 080°11'0 0.0
2018-Apr-21 04:30N 25°47' W 080°11'0 0.0
2018-Apr-21 03:57N 25°47' W 080°11'0 0.0
2018-Apr-21 03:24N 25°47' W 080°11'0 0.0
2018-Apr-21 03:00N 25°47' W 080°11'0 0.0
2018-Apr-21 02:27N 25°47' W 080°11'0 0.0
2018-Apr-21 02:00N 25°47' W 080°11'0 0.0
2018-Apr-21 01:27N 25°47' W 080°11'0 0.0
2018-Apr-21 00:54N 25°47' W 080°11'0 0.0
2018-Apr-21 00:30N 25°47' W 080°11'0 0.0
2018-Apr-21 00:00N 25°47' W 080°11'0 0.0
2018-Apr-20 23:30N 25°47' W 080°11'0 0.0
2018-Apr-20 23:00N 25°47' W 080°11'0 0.0
2018-Apr-20 22:30N 25°47' W 080°11'0 0.0
2018-Apr-20 22:00N 25°47' W 080°11'0 0.0
2018-Apr-20 21:30N 25°47' W 080°11'0 0.0
2018-Apr-20 21:00N 25°47' W 080°11'0 0.0
2018-Apr-20 20:30N 25°47' W 080°11'0 0.0
2018-Apr-20 19:57N 25°47' W 080°11'0 0.0
2018-Apr-20 19:30N 25°47' W 080°11'0 0.0
2018-Apr-20 19:00N 25°47' W 080°11'0 0.0
2018-Apr-20 18:24N 25°47' W 080°11'0 0.0
2018-Apr-20 18:00N 25°47' W 080°11'0 0.0
2018-Apr-20 17:24N 25°47' W 080°11'0 0.0
2018-Apr-20 17:00N 25°47' W 080°11'0 0.0
2018-Apr-20 16:30N 25°47' W 080°11'0 0.0
2018-Apr-20 16:00N 25°47' W 080°11'0 0.0
2018-Apr-20 15:30N 25°47' W 080°11'0 0.0
2018-Apr-20 15:00N 25°47' W 080°11'0 0.0
2018-Apr-20 14:30N 25°47' W 080°11'0 0.0
2018-Apr-20 14:00N 25°47' W 080°11'0 0.0
2018-Apr-20 13:30N 25°47' W 080°11'0 0.0
2018-Apr-20 12:57N 25°47' W 080°11'0 0.0
2018-Apr-20 12:18N 25°47' W 080°11'0 0.0
2018-Apr-20 12:00N 25°47' W 080°11'0 0.0
2018-Apr-20 11:30N 25°47' W 080°11'0 0.0
2018-Apr-20 11:00N 25°47' W 080°11'0 0.0
2018-Apr-20 10:27N 25°47' W 080°11'0 0.0
2018-Apr-20 10:00N 25°47' W 080°11'0 0.0
2018-Apr-20 09:30N 25°47' W 080°11'0 0.0
2018-Apr-20 09:00N 25°47' W 080°11'0 0.0
2018-Apr-20 08:30N 25°47' W 080°11'0 0.0
2018-Apr-20 07:57N 25°47' W 080°11'0 0.0
2018-Apr-20 07:27N 25°47' W 080°11'0 0.0
2018-Apr-20 07:00N 25°47' W 080°11'0 0.0
2018-Apr-20 06:30N 25°47' W 080°11'0 0.0
2018-Apr-20 06:00N 25°47' W 080°11'0 0.0
2018-Apr-20 05:30N 25°47' W 080°11'0 0.0
2018-Apr-20 05:00N 25°47' W 080°11'0 0.0
2018-Apr-20 04:30N 25°47' W 080°11'0 0.0
2018-Apr-20 04:00N 25°47' W 080°11'0 0.0
2018-Apr-20 03:24N 25°47' W 080°11'0 0.0
2018-Apr-20 03:00N 25°47' W 080°11'0 0.0
2018-Apr-20 02:30N 25°47' W 080°11'0 0.0
2018-Apr-20 02:00N 25°47' W 080°11'0 0.0
2018-Apr-20 01:30N 25°47' W 080°11'0 0.0
2018-Apr-20 01:00N 25°47' W 080°11'0 0.0
2018-Apr-20 00:30N 25°47' W 080°11'0 0.0
2018-Apr-20 00:00N 25°47' W 080°11'0 0.0
2018-Apr-19 23:27N 25°47' W 080°11'0 0.0
2018-Apr-19 23:00N 25°47' W 080°11'0 0.0
2018-Apr-19 22:30N 25°47' W 080°11'0 0.0
2018-Apr-19 21:57N 25°47' W 080°11'0 0.0
2018-Apr-19 21:30N 25°47' W 080°11'0 0.0
2018-Apr-19 21:00N 25°47' W 080°11'0 0.0
2018-Apr-19 20:30N 25°47' W 080°11'0 0.0
2018-Apr-19 20:00N 25°47' W 080°11'0 0.0
2018-Apr-19 19:30N 25°47' W 080°11'0 0.0
2018-Apr-19 19:00N 25°47' W 080°11'0 0.0
2018-Apr-19 18:27N 25°47' W 080°11'0 0.0
2018-Apr-19 17:54N 25°47' W 080°11'0 0.0
2018-Apr-19 17:30N 25°47' W 080°11'0 0.0
2018-Apr-19 16:57N 25°47' W 080°11'0 0.0
2018-Apr-19 16:30N 25°47' W 080°11'0 0.0
2018-Apr-19 16:00N 25°47' W 080°11'0 0.0
2018-Apr-19 15:24N 25°47' W 080°11'0 0.0
2018-Apr-19 14:57N 25°47' W 080°11'0 0.0
2018-Apr-19 14:30N 25°47' W 080°11'0 0.0
2018-Apr-19 14:00N 25°47' W 080°11'0 0.0
2018-Apr-19 13:29N 25°47' W 080°11'0 0.0
2018-Apr-19 13:00N 25°47' W 080°11'0 0.0
2018-Apr-19 12:30N 25°47' W 080°11'0 0.0
2018-Apr-19 11:57N 25°47' W 080°11'0 0.0
2018-Apr-19 11:30N 25°47' W 080°11'0 0.0
2018-Apr-19 11:00N 25°47' W 080°11'0 0.0
2018-Apr-19 10:30N 25°47' W 080°11'0 0.0
2018-Apr-19 09:59N 25°47' W 080°11'0 0.0
2018-Apr-19 09:30N 25°47' W 080°11'0 0.0
2018-Apr-19 09:00N 25°47' W 080°11'0 0.0
2018-Apr-19 08:29N 25°47' W 080°11'0 0.0
2018-Apr-19 08:00N 25°47' W 080°11'0 0.0
2018-Apr-19 07:29N 25°47' W 080°11'0 0.0
2018-Apr-19 06:57N 25°47' W 080°11'0 0.0
2018-Apr-19 06:24N 25°47' W 080°11'0 0.0
2018-Apr-19 05:59N 25°47' W 080°11'0 0.0
2018-Apr-19 05:27N 25°47' W 080°11'0 0.0
2018-Apr-19 04:57N 25°47' W 080°11'0 0.0
2018-Apr-19 04:26N 25°47' W 080°11'0 0.0
2018-Apr-19 03:59N 25°47' W 080°11'0 0.0
2018-Apr-19 03:29N 25°47' W 080°11'0 0.0
2018-Apr-19 02:59N 25°47' W 080°11'0 0.0
2018-Apr-19 02:29N 25°47' W 080°11'0 0.0
2018-Apr-19 02:00N 25°47' W 080°11'0 0.0
2018-Apr-19 01:27N 25°47' W 080°11'0 0.0
2018-Apr-19 01:00N 25°47' W 080°11'0 0.0
2018-Apr-19 00:30N 25°47' W 080°11'0 0.0
2018-Apr-19 00:00N 25°47' W 080°11'0 0.0
2018-Apr-18 23:30N 25°47' W 080°11'0 0.0
2018-Apr-18 23:00N 25°47' W 080°11'0 0.0
2018-Apr-18 22:30N 25°47' W 080°11'0 0.0
2018-Apr-18 22:00N 25°47' W 080°11'0 0.0
2018-Apr-18 21:30N 25°47' W 080°11'0 0.0
2018-Apr-18 21:00N 25°47' W 080°11'0 0.0
2018-Apr-18 20:27N 25°47' W 080°11'0 0.0
2018-Apr-18 20:00N 25°47' W 080°11'0 0.0
2018-Apr-18 19:30N 25°47' W 080°11'0 0.0
2018-Apr-18 19:00N 25°47' W 080°11'0 0.0
2018-Apr-18 18:30N 25°47' W 080°11'0 0.0
2018-Apr-18 17:57N 25°47' W 080°11'0 0.0
2018-Apr-18 17:30N 25°47' W 080°11'0 0.0
2018-Apr-18 17:00N 25°47' W 080°11'0 0.0
2018-Apr-18 16:30N 25°47' W 080°11'0 0.0
2018-Apr-18 16:00N 25°47' W 080°11'0 0.0
2018-Apr-18 15:30N 25°47' W 080°11'0 0.0
2018-Apr-18 15:00N 25°47' W 080°11'0 0.0
2018-Apr-18 14:30N 25°47' W 080°11'0 0.0
2018-Apr-18 14:00N 25°47' W 080°11'0 0.0
2018-Apr-18 13:30N 25°47' W 080°11'0 0.0
2018-Apr-18 13:00N 25°47' W 080°11'0 0.0
2018-Apr-18 12:30N 25°47' W 080°11'0 0.0
2018-Apr-18 12:00N 25°47' W 080°11'0 0.0
2018-Apr-18 11:27N 25°47' W 080°11'0 0.0
2018-Apr-18 11:00N 25°47' W 080°11'0 0.0
2018-Apr-18 10:30N 25°47' W 080°11'0 0.0
2018-Apr-18 09:57N 25°47' W 080°11'0 0.0
2018-Apr-18 09:30N 25°47' W 080°11'0 0.0
2018-Apr-18 09:00N 25°47' W 080°11'0 0.0
2018-Apr-18 08:30N 25°47' W 080°11'0 0.0
2018-Apr-18 08:00N 25°47' W 080°11'0 0.0
2018-Apr-18 07:30N 25°47' W 080°11'0 0.0
2018-Apr-18 07:00N 25°47' W 080°11'0 0.0
2018-Apr-18 06:30N 25°47' W 080°11'0 0.0
2018-Apr-18 05:57N 25°47' W 080°11'0 0.0
2018-Apr-18 05:30N 25°47' W 080°11'0 0.0
2018-Apr-18 04:57N 25°47' W 080°11'0 0.0
2018-Apr-18 04:30N 25°47' W 080°11'0 0.0
2018-Apr-18 04:00N 25°47' W 080°11'0 0.0
2018-Apr-18 03:30N 25°47' W 080°11'0 0.0
2018-Apr-18 03:00N 25°47' W 080°11'0 0.0
2018-Apr-18 02:30N 25°47' W 080°11'0 0.0
2018-Apr-18 01:58N 25°47' W 080°11'0 0.0
2018-Apr-18 01:25N 25°47' W 080°11'0 0.0
2018-Apr-18 00:58N 25°47' W 080°11'0 0.0
2018-Apr-18 00:28N 25°47' W 080°11'0 0.0
2018-Apr-17 23:58N 25°47' W 080°11'0 0.0
2018-Apr-17 23:28N 25°47' W 080°11'0 0.0
2018-Apr-17 22:58N 25°47' W 080°11'0 0.0
2018-Apr-17 22:28N 25°47' W 080°11'0 0.0
2018-Apr-17 21:52N 25°47' W 080°11'0 0.0
2018-Apr-17 21:28N 25°47' W 080°11'0 0.0
2018-Apr-17 20:55N 25°47' W 080°11'0 0.0
2018-Apr-17 20:25N 25°47' W 080°11'0 0.0
2018-Apr-17 19:58N 25°47' W 080°11'0 0.0
2018-Apr-17 19:28N 25°47' W 080°11'0 0.0
2018-Apr-17 18:55N 25°47' W 080°11'0 0.0
2018-Apr-17 18:28N 25°47' W 080°11'0 0.0
2018-Apr-17 17:58N 25°47' W 080°11'0 0.0
2018-Apr-17 17:28N 25°47' W 080°11'0 0.0
2018-Apr-17 16:58N 25°47' W 080°11'0 0.0
2018-Apr-17 16:28N 25°47' W 080°11'0 0.0
2018-Apr-17 15:58N 25°47' W 080°11'0 0.0
2018-Apr-17 15:25N 25°47' W 080°11'0 0.0
2018-Apr-17 14:52N 25°47' W 080°11'0 0.0
2018-Apr-17 14:28N 25°47' W 080°11'0 0.0
2018-Apr-17 13:58N 25°47' W 080°11'0 0.0
2018-Apr-17 13:28N 25°47' W 080°11'0 0.0
2018-Apr-17 12:58N 25°47' W 080°11'0 0.0
2018-Apr-17 12:28N 25°47' W 080°11'0 0.0
2018-Apr-17 11:58N 25°47' W 080°11'0 0.0
2018-Apr-17 11:25N 25°47' W 080°11'0 0.0
2018-Apr-17 10:58N 25°47' W 080°11'0 0.0
2018-Apr-17 10:28N 25°47' W 080°11'0 0.0
2018-Apr-17 09:58N 25°47' W 080°11'0 0.0
2018-Apr-17 09:28N 25°47' W 080°11'0 0.0
2018-Apr-17 08:58N 25°47' W 080°11'0 0.0
2018-Apr-17 08:22N 25°47' W 080°11'0 0.0
2018-Apr-17 07:58N 25°47' W 080°11'0 0.0
2018-Apr-17 07:28N 25°47' W 080°11'0 0.0
2018-Apr-17 06:58N 25°47' W 080°11'0 0.0
2018-Apr-17 06:28N 25°47' W 080°11'0 0.0
2018-Apr-17 05:58N 25°47' W 080°11'0 0.0
2018-Apr-17 05:28N 25°47' W 080°11'0 0.0
2018-Apr-17 04:55N 25°47' W 080°11'0 0.0
2018-Apr-17 04:28N 25°47' W 080°11'0 0.0
2018-Apr-17 03:58N 25°47' W 080°11'0 0.0
2018-Apr-17 03:28N 25°47' W 080°11'0 0.0
2018-Apr-17 02:58N 25°47' W 080°11'0 0.0
2018-Apr-17 02:29N 25°47' W 080°11'0 0.0
2018-Apr-17 01:59N 25°47' W 080°11'0 0.0
2018-Apr-17 01:29N 25°47' W 080°11'0 0.0
2018-Apr-17 00:59N 25°47' W 080°11'0 0.0
2018-Apr-17 00:29N 25°47' W 080°11'0 0.0
2018-Apr-16 23:59N 25°47' W 080°11'0 0.0
2018-Apr-16 23:26N 25°47' W 080°11'0 0.0
2018-Apr-16 22:59N 25°47' W 080°11'0 0.0
2018-Apr-16 22:29N 25°47' W 080°11'0 0.0
2018-Apr-16 21:59N 25°47' W 080°11'0 0.0
2018-Apr-16 21:29N 25°47' W 080°11'0 0.0
2018-Apr-16 20:59N 25°47' W 080°11'0 0.0
2018-Apr-16 20:26N 25°47' W 080°11'0 0.0
2018-Apr-16 19:59N 25°47' W 080°11'0 0.0
2018-Apr-16 19:29N 25°47' W 080°11'0 0.0
2018-Apr-16 18:56N 25°47' W 080°11'0 0.0
2018-Apr-16 18:26N 25°47' W 080°11'0 0.0
2018-Apr-16 17:59N 25°47' W 080°11'0 0.0
2018-Apr-16 17:26N 25°47' W 080°11'0 0.0
2018-Apr-16 16:56N 25°47' W 080°11'0 0.0
2018-Apr-16 16:26N 25°47' W 080°11'0 0.0
2018-Apr-16 15:56N 25°47' W 080°11'0 0.0
2018-Apr-16 15:29N 25°47' W 080°11'0 0.0
2018-Apr-16 14:59N 25°47' W 080°11'0 0.0
2018-Apr-16 14:29N 25°47' W 080°11'0 0.0
2018-Apr-16 13:59N 25°47' W 080°11'0 0.0
2018-Apr-16 13:26N 25°47' W 080°11'0 0.0
2018-Apr-16 12:56N 25°47' W 080°11'0 0.0
2018-Apr-16 12:29N 25°47' W 080°11'0 0.0
2018-Apr-16 11:56N 25°47' W 080°11'0 0.0
2018-Apr-16 11:29N 25°47' W 080°11'0 0.0
2018-Apr-16 10:59N 25°47' W 080°11'0 0.0
2018-Apr-16 10:29N 25°47' W 080°11'0 0.0
2018-Apr-16 09:59N 25°47' W 080°11'0 0.0
2018-Apr-16 09:29N 25°47' W 080°11'0 0.0
2018-Apr-16 08:59N 25°47' W 080°11'0 0.0
2018-Apr-16 08:26N 25°47' W 080°11'0 0.0
2018-Apr-16 07:59N 25°47' W 080°11'0 0.0
2018-Apr-16 07:29N 25°47' W 080°11'0 0.0
2018-Apr-16 06:59N 25°47' W 080°11'0 0.0
2018-Apr-16 06:29N 25°47' W 080°11'0 0.0
2018-Apr-16 05:59N 25°47' W 080°11'0 0.0
2018-Apr-16 05:29N 25°47' W 080°11'0 0.0
2018-Apr-16 04:56N 25°47' W 080°11'0 0.0
2018-Apr-16 04:29N 25°47' W 080°11'0 0.0
2018-Apr-16 03:59N 25°47' W 080°11'0 0.0
2018-Apr-16 03:29N 25°47' W 080°11'0 0.0
2018-Apr-16 02:53N 25°47' W 080°11'0 0.0
2018-Apr-16 02:30N 25°47' W 080°11'0 0.0
2018-Apr-16 01:58N 25°47' W 080°11'0 0.0
2018-Apr-16 01:22N 25°47' W 080°11'0 0.0
2018-Apr-16 00:58N 25°47' W 080°11'0 0.0
2018-Apr-16 00:28N 25°47' W 080°11'0 0.0
2018-Apr-15 23:58N 25°47' W 080°11'0 0.0
2018-Apr-15 23:28N 25°47' W 080°11'0 0.0
2018-Apr-15 22:55N 25°47' W 080°11'0 0.0
2018-Apr-15 22:28N 25°47' W 080°11'0 0.0
2018-Apr-15 21:58N 25°47' W 080°11'0 0.0
2018-Apr-15 21:25N 25°47' W 080°11'0 0.0
2018-Apr-15 20:58N 25°47' W 080°11'0 0.0
2018-Apr-15 20:28N 25°47' W 080°11'0 0.0
2018-Apr-15 19:58N 25°47' W 080°11'0 0.0
2018-Apr-15 19:28N 25°47' W 080°11'0 0.0
2018-Apr-15 18:58N 25°47' W 080°11'0 0.0
2018-Apr-15 18:28N 25°47' W 080°11'0 0.0
2018-Apr-15 17:58N 25°47' W 080°11'0 0.0
2018-Apr-15 17:28N 25°47' W 080°11'0 0.0
2018-Apr-15 16:58N 25°47' W 080°11'0 0.0
2018-Apr-15 16:28N 25°47' W 080°11'0 0.0
2018-Apr-15 15:58N 25°47' W 080°11'0 0.0
2018-Apr-15 15:22N 25°47' W 080°11'0 0.0
2018-Apr-15 14:58N 25°47' W 080°11'0 0.0
2018-Apr-15 14:28N 25°47' W 080°11'0 0.0
2018-Apr-15 13:58N 25°47' W 080°11'0 0.0
2018-Apr-15 13:28N 25°47' W 080°11'0 0.0
2018-Apr-15 12:55N 25°47' W 080°11'0 0.0
2018-Apr-15 12:28N 25°47' W 080°11'0 0.0
2018-Apr-15 11:52N 25°47' W 080°11'0 0.0
2018-Apr-15 11:28N 25°47' W 080°11'0 0.0
2018-Apr-15 10:55N 25°47' W 080°11'0 0.0
2018-Apr-15 10:28N 25°47' W 080°11'0 0.0
2018-Apr-15 09:58N 25°47' W 080°11'0 0.0
2018-Apr-15 09:28N 25°47' W 080°11'0 0.0
2018-Apr-15 08:55N 25°47' W 080°11'0 0.0
2018-Apr-15 08:28N 25°47' W 080°11'0 0.0
2018-Apr-15 07:58N 25°47' W 080°11'0 0.0
2018-Apr-15 07:28N 25°47' W 080°11'0 0.0
2018-Apr-15 06:58N 25°47' W 080°11'0 0.0
2018-Apr-15 06:28N 25°47' W 080°11'0 0.0
2018-Apr-15 05:58N 25°47' W 080°11'0 0.0
2018-Apr-15 05:28N 25°47' W 080°11'0 0.0
2018-Apr-15 04:58N 25°47' W 080°11'0 0.0
2018-Apr-15 04:28N 25°47' W 080°11'0 0.0
2018-Apr-15 03:58N 25°47' W 080°11'0 0.0
2018-Apr-15 03:16N 25°47' W 080°11'0 0.0
2018-Apr-15 02:55N 25°47' W 080°11'0 0.0
2018-Apr-15 02:30N 25°47' W 080°11'0 0.0
2018-Apr-15 01:58N 25°47' W 080°11'0 0.0
2018-Apr-15 01:28N 25°47' W 080°11'0 0.0
2018-Apr-15 00:58N 25°47' W 080°11'0 0.0
2018-Apr-15 00:28N 25°47' W 080°11'0 0.0
2018-Apr-14 23:58N 25°47' W 080°11'0 0.0
2018-Apr-14 23:28N 25°47' W 080°11'0 0.0
2018-Apr-14 22:58N 25°47' W 080°11'0 0.0
2018-Apr-14 22:28N 25°47' W 080°11'0 0.0
2018-Apr-14 21:58N 25°47' W 080°11'0 0.0
2018-Apr-14 21:28N 25°47' W 080°11'0 0.0
2018-Apr-14 20:55N 25°47' W 080°11'0 0.0
2018-Apr-14 20:28N 25°47' W 080°11'0 0.0
2018-Apr-14 19:58N 25°47' W 080°11'0 0.0
2018-Apr-14 19:28N 25°47' W 080°11'0 0.0
2018-Apr-14 18:58N 25°47' W 080°11'0 0.0
2018-Apr-14 18:22N 25°47' W 080°11'0 0.0
2018-Apr-14 17:58N 25°47' W 080°11'0 0.0
2018-Apr-14 17:28N 25°47' W 080°11'0 0.0
2018-Apr-14 16:58N 25°47' W 080°11'0 0.0
2018-Apr-14 16:28N 25°47' W 080°11'0 0.0
2018-Apr-14 15:55N 25°47' W 080°11'0 0.0
2018-Apr-14 15:28N 25°47' W 080°11'0 0.0
2018-Apr-14 14:55N 25°47' W 080°11'0 0.0
2018-Apr-14 14:28N 25°47' W 080°11'0 0.0
2018-Apr-14 13:58N 25°47' W 080°11'0 0.0
2018-Apr-14 13:28N 25°47' W 080°11'0 0.0
2018-Apr-14 12:58N 25°47' W 080°11'0 0.0
2018-Apr-14 12:28N 25°47' W 080°11'0 0.0
2018-Apr-14 11:58N 25°47' W 080°11'0 0.0
2018-Apr-14 11:28N 25°47' W 080°11'0 0.0
2018-Apr-14 10:55N 25°47' W 080°11'0 0.0
2018-Apr-14 10:25N 25°47' W 080°11'0 0.0
2018-Apr-14 09:58N 25°47' W 080°11'0 0.0
2018-Apr-14 09:28N 25°47' W 080°11'0 0.0
2018-Apr-14 08:58N 25°47' W 080°11'0 0.0
2018-Apr-14 08:28N 25°47' W 080°11'0 0.0
2018-Apr-14 07:58N 25°47' W 080°11'0 0.0
2018-Apr-14 07:28N 25°47' W 080°11'0 0.0
2018-Apr-14 06:55N 25°47' W 080°11'0 0.0
2018-Apr-14 06:22N 25°47' W 080°11'0 0.0
2018-Apr-14 05:58N 25°47' W 080°11'0 0.0
2018-Apr-14 05:25N 25°47' W 080°11'0 0.0
2018-Apr-14 04:58N 25°47' W 080°11'0 0.0
2018-Apr-14 04:22N 25°47' W 080°11'0 0.0
2018-Apr-14 03:58N 25°47' W 080°11'0 0.0
2018-Apr-14 03:28N 25°47' W 080°11'0 0.0
2018-Apr-14 02:49N 25°47' W 080°11'0 0.0
2018-Apr-14 02:30N 25°47' W 080°11'0 0.0
2018-Apr-14 02:00N 25°47' W 080°11'0 0.0
2018-Apr-14 01:29N 25°47' W 080°11'0 0.0
2018-Apr-14 00:59N 25°47' W 080°11'0 0.0
2018-Apr-14 00:27N 25°47' W 080°11'0 0.0
2018-Apr-13 23:59N 25°47' W 080°11'0 0.0
2018-Apr-13 23:24N 25°47' W 080°11'0 0.0
2018-Apr-13 22:57N 25°47' W 080°11'0 0.0
2018-Apr-13 22:29N 25°47' W 080°11'0 0.0
2018-Apr-13 21:59N 25°47' W 080°11'0 0.0
2018-Apr-13 21:30N 25°47' W 080°11'0 0.0
2018-Apr-13 20:59N 25°47' W 080°11'0 0.0
2018-Apr-13 20:29N 25°47' W 080°11'0 0.0
2018-Apr-13 19:56N 25°47' W 080°11'0 0.0
2018-Apr-13 19:29N 25°47' W 080°11'0 0.0
2018-Apr-13 18:59N 25°47' W 080°11'0 0.0
2018-Apr-13 18:29N 25°47' W 080°11'0 0.0
2018-Apr-13 17:59N 25°47' W 080°11'0 0.0
2018-Apr-13 17:29N 25°47' W 080°11'0 0.0
2018-Apr-13 16:59N 25°47' W 080°11'0 0.0
2018-Apr-13 16:29N 25°47' W 080°11'0 0.0
2018-Apr-13 15:59N 25°47' W 080°11'0 0.0
2018-Apr-13 15:29N 25°47' W 080°11'0 0.0
2018-Apr-13 14:59N 25°47' W 080°11'0 0.0
2018-Apr-13 14:29N 25°47' W 080°11'0 0.0
2018-Apr-13 13:59N 25°47' W 080°11'0 0.0
2018-Apr-13 13:30N 25°47' W 080°11'0 0.1
2018-Apr-13 13:00N 25°47' W 080°11'3 5.1
2018-Apr-13 12:30N 25°46' W 080°08'3 6.8
2018-Apr-13 12:01N 25°46' W 080°05'3 6.0
2018-Apr-13 11:30N 25°44' W 080°02'1 2.5
2018-Apr-13 11:00N 25°43' W 080°01'1 2.7
2018-Apr-13 10:30N 25°42' W 080°01'1 2.9
2018-Apr-13 10:00N 25°40' W 079°60'2 3.1
2018-Apr-13 09:30N 25°39' W 079°59'1 2.0
2018-Apr-13 09:00N 25°38' W 079°58'0 0.6
2018-Apr-13 08:30N 25°38' W 079°58'0 0.8
2018-Apr-13 08:00N 25°38' W 079°58'0 0.8
2018-Apr-13 07:31N 25°38' W 079°57'0 0.9
2018-Apr-13 06:58N 25°38' W 079°57'0 0.8
2018-Apr-13 06:31N 25°37' W 079°56'1 1.1
2018-Apr-13 06:00N 25°37' W 079°56'1 1.1
2018-Apr-13 05:31N 25°37' W 079°55'1 1.3
2018-Apr-13 04:59N 25°37' W 079°55'2 3.4
2018-Apr-13 04:27N 25°36' W 079°54'1 2.9
2018-Apr-13 04:01N 25°36' W 079°52'1 1.1
2018-Apr-13 03:23N 25°36' W 079°51'1 2.0
2018-Apr-13 02:55N 25°35' W 079°50'2 4.9
2018-Apr-13 02:30N 25°34' W 079°49'  

Dump ship's entire track history